sensor_id;sensor_type;location;lat;lon;timestamp;P1;durP1;ratioP1;P2;durP2;ratioP2
8622;SDS011;4349;47.552;8.904;2023-04-15T00:01:41;6.00;;;2.60;;
8622;SDS011;4349;47.552;8.904;2023-04-15T00:04:09;2.87;;;2.67;;
8622;SDS011;4349;47.552;8.904;2023-04-15T00:06:36;2.90;;;2.30;;
8622;SDS011;4349;47.552;8.904;2023-04-15T00:09:06;2.60;;;2.40;;
8622;SDS011;4349;47.552;8.904;2023-04-15T00:11:33;2.63;;;2.43;;
8622;SDS011;4349;47.552;8.904;2023-04-15T00:14:01;2.83;;;2.50;;
8622;SDS011;4349;47.552;8.904;2023-04-15T00:16:28;4.10;;;2.20;;
8622;SDS011;4349;47.552;8.904;2023-04-15T00:18:56;2.27;;;2.10;;
8622;SDS011;4349;47.552;8.904;2023-04-15T00:21:24;2.70;;;2.50;;
8622;SDS011;4349;47.552;8.904;2023-04-15T00:23:54;3.20;;;2.60;;
8622;SDS011;4349;47.552;8.904;2023-04-15T00:26:23;2.83;;;2.50;;
8622;SDS011;4349;47.552;8.904;2023-04-15T00:28:50;3.60;;;2.53;;
8622;SDS011;4349;47.552;8.904;2023-04-15T00:31:18;2.67;;;2.23;;
8622;SDS011;4349;47.552;8.904;2023-04-15T00:33:46;2.10;;;2.00;;
8622;SDS011;4349;47.552;8.904;2023-04-15T00:36:13;2.50;;;2.30;;
8622;SDS011;4349;47.552;8.904;2023-04-15T00:38:41;3.60;;;2.40;;
8622;SDS011;4349;47.552;8.904;2023-04-15T00:41:08;3.03;;;2.83;;
8622;SDS011;4349;47.552;8.904;2023-04-15T00:43:38;2.80;;;2.60;;
8622;SDS011;4349;47.552;8.904;2023-04-15T00:46:06;4.43;;;2.53;;
8622;SDS011;4349;47.552;8.904;2023-04-15T00:48:34;3.57;;;2.60;;
8622;SDS011;4349;47.552;8.904;2023-04-15T00:51:04;2.90;;;2.70;;
8622;SDS011;4349;47.552;8.904;2023-04-15T00:53:32;3.60;;;3.30;;
8622;SDS011;4349;47.552;8.904;2023-04-15T00:55:59;3.00;;;2.70;;
8622;SDS011;4349;47.552;8.904;2023-04-15T00:58:27;4.10;;;2.83;;
8622;SDS011;4349;47.552;8.904;2023-04-15T01:00:56;2.70;;;2.60;;
8622;SDS011;4349;47.552;8.904;2023-04-15T01:03:24;2.57;;;2.37;;
8622;SDS011;4349;47.552;8.904;2023-04-15T01:05:52;2.67;;;2.47;;
8622;SDS011;4349;47.552;8.904;2023-04-15T01:08:25;2.87;;;2.67;;
8622;SDS011;4349;47.552;8.904;2023-04-15T01:10:53;2.50;;;2.40;;
8622;SDS011;4349;47.552;8.904;2023-04-15T01:13:21;2.83;;;2.33;;
8622;SDS011;4349;47.552;8.904;2023-04-15T01:15:49;3.17;;;2.43;;
8622;SDS011;4349;47.552;8.904;2023-04-15T01:18:18;4.57;;;2.13;;
8622;SDS011;4349;47.552;8.904;2023-04-15T01:20:46;2.63;;;2.33;;
8622;SDS011;4349;47.552;8.904;2023-04-15T01:23:14;3.10;;;2.60;;
8622;SDS011;4349;47.552;8.904;2023-04-15T01:25:43;2.30;;;2.13;;
8622;SDS011;4349;47.552;8.904;2023-04-15T01:28:11;2.00;;;1.90;;
8622;SDS011;4349;47.552;8.904;2023-04-15T01:30:39;2.07;;;1.93;;
8622;SDS011;4349;47.552;8.904;2023-04-15T01:33:06;2.20;;;2.10;;
8622;SDS011;4349;47.552;8.904;2023-04-15T01:35:34;3.20;;;2.27;;
8622;SDS011;4349;47.552;8.904;2023-04-15T01:38:02;2.03;;;1.97;;
8622;SDS011;4349;47.552;8.904;2023-04-15T01:40:31;2.60;;;2.40;;
8622;SDS011;4349;47.552;8.904;2023-04-15T01:43:00;2.33;;;1.80;;
8622;SDS011;4349;47.552;8.904;2023-04-15T01:45:27;2.50;;;2.30;;
8622;SDS011;4349;47.552;8.904;2023-04-15T01:47:55;2.27;;;2.20;;
8622;SDS011;4349;47.552;8.904;2023-04-15T01:50:22;3.43;;;2.40;;
8622;SDS011;4349;47.552;8.904;2023-04-15T01:52:53;2.60;;;2.00;;
8622;SDS011;4349;47.552;8.904;2023-04-15T01:55:20;2.40;;;2.27;;
8622;SDS011;4349;47.552;8.904;2023-04-15T01:57:47;2.77;;;2.30;;
8622;SDS011;4349;47.552;8.904;2023-04-15T02:00:16;2.93;;;2.07;;
8622;SDS011;4349;47.552;8.904;2023-04-15T02:02:44;2.53;;;2.43;;
8622;SDS011;4349;47.552;8.904;2023-04-15T02:05:11;3.37;;;2.30;;
8622;SDS011;4349;47.552;8.904;2023-04-15T02:07:39;2.60;;;2.40;;
8622;SDS011;4349;47.552;8.904;2023-04-15T02:10:08;2.70;;;2.50;;
8622;SDS011;4349;47.552;8.904;2023-04-15T02:12:35;3.10;;;2.50;;
8622;SDS011;4349;47.552;8.904;2023-04-15T02:15:03;2.40;;;2.30;;
8622;SDS011;4349;47.552;8.904;2023-04-15T02:17:34;2.60;;;2.47;;
8622;SDS011;4349;47.552;8.904;2023-04-15T02:20:01;2.67;;;2.30;;
8622;SDS011;4349;47.552;8.904;2023-04-15T02:22:32;3.03;;;2.60;;
8622;SDS011;4349;47.552;8.904;2023-04-15T02:24:59;2.63;;;2.43;;
8622;SDS011;4349;47.552;8.904;2023-04-15T02:27:30;4.43;;;2.60;;
8622;SDS011;4349;47.552;8.904;2023-04-15T02:29:57;2.83;;;2.63;;
8622;SDS011;4349;47.552;8.904;2023-04-15T02:32:26;6.43;;;2.73;;
8622;SDS011;4349;47.552;8.904;2023-04-15T02:34:55;2.47;;;2.30;;
8622;SDS011;4349;47.552;8.904;2023-04-15T02:37:23;2.57;;;2.20;;
8622;SDS011;4349;47.552;8.904;2023-04-15T02:39:54;2.20;;;2.10;;
8622;SDS011;4349;47.552;8.904;2023-04-15T02:42:21;2.97;;;2.13;;
8622;SDS011;4349;47.552;8.904;2023-04-15T02:44:48;2.93;;;2.37;;
8622;SDS011;4349;47.552;8.904;2023-04-15T02:47:16;1.90;;;1.80;;
8622;SDS011;4349;47.552;8.904;2023-04-15T02:49:44;2.00;;;1.90;;
8622;SDS011;4349;47.552;8.904;2023-04-15T02:52:14;2.30;;;2.07;;
8622;SDS011;4349;47.552;8.904;2023-04-15T02:54:41;2.10;;;1.90;;
8622;SDS011;4349;47.552;8.904;2023-04-15T02:57:09;2.40;;;2.20;;
8622;SDS011;4349;47.552;8.904;2023-04-15T02:59:37;2.50;;;2.30;;
8622;SDS011;4349;47.552;8.904;2023-04-15T03:02:04;4.07;;;2.00;;
8622;SDS011;4349;47.552;8.904;2023-04-15T03:04:33;2.30;;;1.90;;
8622;SDS011;4349;47.552;8.904;2023-04-15T03:07:00;2.27;;;2.07;;
8622;SDS011;4349;47.552;8.904;2023-04-15T03:09:29;1.97;;;1.87;;
8622;SDS011;4349;47.552;8.904;2023-04-15T03:11:59;3.50;;;2.40;;
8622;SDS011;4349;47.552;8.904;2023-04-15T03:14:27;2.83;;;2.63;;
8622;SDS011;4349;47.552;8.904;2023-04-15T03:16:55;2.50;;;2.40;;
8622;SDS011;4349;47.552;8.904;2023-04-15T03:19:24;2.90;;;2.70;;
8622;SDS011;4349;47.552;8.904;2023-04-15T03:21:52;3.10;;;2.90;;
8622;SDS011;4349;47.552;8.904;2023-04-15T03:24:19;2.90;;;2.60;;
8622;SDS011;4349;47.552;8.904;2023-04-15T03:26:48;2.20;;;2.10;;
8622;SDS011;4349;47.552;8.904;2023-04-15T03:29:16;2.63;;;2.43;;
8622;SDS011;4349;47.552;8.904;2023-04-15T03:31:44;2.60;;;2.40;;
8622;SDS011;4349;47.552;8.904;2023-04-15T03:34:12;2.50;;;2.30;;
8622;SDS011;4349;47.552;8.904;2023-04-15T03:36:39;2.53;;;2.33;;
8622;SDS011;4349;47.552;8.904;2023-04-15T03:39:06;3.37;;;2.60;;
8622;SDS011;4349;47.552;8.904;2023-04-15T03:41:34;2.53;;;2.30;;
8622;SDS011;4349;47.552;8.904;2023-04-15T03:44:03;2.63;;;2.43;;
8622;SDS011;4349;47.552;8.904;2023-04-15T03:46:30;3.07;;;2.70;;
8622;SDS011;4349;47.552;8.904;2023-04-15T03:48:58;2.77;;;2.57;;
8622;SDS011;4349;47.552;8.904;2023-04-15T03:51:26;2.33;;;2.23;;
8622;SDS011;4349;47.552;8.904;2023-04-15T03:53:53;2.73;;;2.27;;
8622;SDS011;4349;47.552;8.904;2023-04-15T03:56:21;2.50;;;2.30;;
8622;SDS011;4349;47.552;8.904;2023-04-15T03:58:48;2.33;;;2.10;;
8622;SDS011;4349;47.552;8.904;2023-04-15T04:01:17;4.17;;;2.47;;
8622;SDS011;4349;47.552;8.904;2023-04-15T04:03:45;3.67;;;2.40;;
8622;SDS011;4349;47.552;8.904;2023-04-15T04:06:12;2.53;;;2.10;;
8622;SDS011;4349;47.552;8.904;2023-04-15T04:08:40;2.40;;;2.30;;
8622;SDS011;4349;47.552;8.904;2023-04-15T04:11:08;2.40;;;2.20;;
8622;SDS011;4349;47.552;8.904;2023-04-15T04:13:35;2.00;;;1.90;;
8622;SDS011;4349;47.552;8.904;2023-04-15T04:16:03;2.33;;;2.10;;
8622;SDS011;4349;47.552;8.904;2023-04-15T04:18:32;2.53;;;2.43;;
8622;SDS011;4349;47.552;8.904;2023-04-15T04:20:59;3.10;;;2.30;;
8622;SDS011;4349;47.552;8.904;2023-04-15T04:23:27;2.20;;;2.10;;
8622;SDS011;4349;47.552;8.904;2023-04-15T04:25:54;2.03;;;1.90;;
8622;SDS011;4349;47.552;8.904;2023-04-15T04:28:22;2.27;;;2.17;;
8622;SDS011;4349;47.552;8.904;2023-04-15T04:30:50;2.50;;;2.40;;
8622;SDS011;4349;47.552;8.904;2023-04-15T04:33:17;2.57;;;2.47;;
8622;SDS011;4349;47.552;8.904;2023-04-15T04:35:46;2.37;;;2.17;;
8622;SDS011;4349;47.552;8.904;2023-04-15T04:38:13;2.10;;;2.00;;
8622;SDS011;4349;47.552;8.904;2023-04-15T04:40:41;2.40;;;2.30;;
8622;SDS011;4349;47.552;8.904;2023-04-15T04:43:08;2.20;;;2.10;;
8622;SDS011;4349;47.552;8.904;2023-04-15T04:45:36;1.80;;;1.80;;
8622;SDS011;4349;47.552;8.904;2023-04-15T04:48:04;2.30;;;2.20;;
8622;SDS011;4349;47.552;8.904;2023-04-15T04:50:32;2.30;;;2.20;;
8622;SDS011;4349;47.552;8.904;2023-04-15T04:53:01;2.43;;;2.33;;
8622;SDS011;4349;47.552;8.904;2023-04-15T04:55:29;2.10;;;2.00;;
8622;SDS011;4349;47.552;8.904;2023-04-15T04:57:57;3.03;;;2.00;;
8622;SDS011;4349;47.552;8.904;2023-04-15T05:00:24;2.87;;;2.60;;
8622;SDS011;4349;47.552;8.904;2023-04-15T05:02:51;2.90;;;2.27;;
8622;SDS011;4349;47.552;8.904;2023-04-15T05:05:19;3.87;;;2.50;;
8622;SDS011;4349;47.552;8.904;2023-04-15T05:07:47;2.83;;;2.20;;
8622;SDS011;4349;47.552;8.904;2023-04-15T05:10:17;3.33;;;2.40;;
8622;SDS011;4349;47.552;8.904;2023-04-15T05:12:44;2.20;;;2.10;;
8622;SDS011;4349;47.552;8.904;2023-04-15T05:15:12;2.40;;;2.30;;
8622;SDS011;4349;47.552;8.904;2023-04-15T05:17:39;2.10;;;2.00;;
8622;SDS011;4349;47.552;8.904;2023-04-15T05:20:07;2.60;;;2.50;;
8622;SDS011;4349;47.552;8.904;2023-04-15T05:22:34;3.63;;;2.70;;
8622;SDS011;4349;47.552;8.904;2023-04-15T05:25:03;2.90;;;2.70;;
8622;SDS011;4349;47.552;8.904;2023-04-15T05:27:32;8.33;;;2.77;;
8622;SDS011;4349;47.552;8.904;2023-04-15T05:29:59;2.87;;;2.47;;
8622;SDS011;4349;47.552;8.904;2023-04-15T05:32:27;2.87;;;2.77;;
8622;SDS011;4349;47.552;8.904;2023-04-15T05:34:54;4.47;;;2.80;;
8622;SDS011;4349;47.552;8.904;2023-04-15T05:37:22;3.00;;;2.67;;
8622;SDS011;4349;47.552;8.904;2023-04-15T05:39:49;3.63;;;3.40;;
8622;SDS011;4349;47.552;8.904;2023-04-15T05:42:17;2.60;;;2.50;;
8622;SDS011;4349;47.552;8.904;2023-04-15T05:44:45;4.43;;;3.97;;
8622;SDS011;4349;47.552;8.904;2023-04-15T05:47:13;7.03;;;5.90;;
8622;SDS011;4349;47.552;8.904;2023-04-15T05:49:40;3.73;;;3.43;;
8622;SDS011;4349;47.552;8.904;2023-04-15T05:52:08;3.00;;;2.80;;
8622;SDS011;4349;47.552;8.904;2023-04-15T05:54:35;2.50;;;2.30;;
8622;SDS011;4349;47.552;8.904;2023-04-15T05:57:04;2.37;;;2.27;;
8622;SDS011;4349;47.552;8.904;2023-04-15T05:59:31;2.30;;;2.20;;
8622;SDS011;4349;47.552;8.904;2023-04-15T06:02:00;2.80;;;2.60;;
8622;SDS011;4349;47.552;8.904;2023-04-15T06:04:27;2.93;;;2.23;;
8622;SDS011;4349;47.552;8.904;2023-04-15T06:06:55;1.87;;;1.77;;
8622;SDS011;4349;47.552;8.904;2023-04-15T06:09:23;2.50;;;2.33;;
8622;SDS011;4349;47.552;8.904;2023-04-15T06:11:50;2.23;;;2.13;;
8622;SDS011;4349;47.552;8.904;2023-04-15T06:17:17;3.47;;;3.23;;
8622;SDS011;4349;47.552;8.904;2023-04-15T06:19:45;3.77;;;3.50;;
8622;SDS011;4349;47.552;8.904;2023-04-15T06:22:12;4.13;;;3.83;;
8622;SDS011;4349;47.552;8.904;2023-04-15T06:24:40;4.60;;;4.20;;
8622;SDS011;4349;47.552;8.904;2023-04-15T06:27:07;3.70;;;3.50;;
8622;SDS011;4349;47.552;8.904;2023-04-15T06:29:35;4.03;;;3.73;;
8622;SDS011;4349;47.552;8.904;2023-04-15T06:32:02;3.40;;;3.10;;
8622;SDS011;4349;47.552;8.904;2023-04-15T06:34:31;3.57;;;3.33;;
8622;SDS011;4349;47.552;8.904;2023-04-15T06:36:58;3.47;;;3.27;;
8622;SDS011;4349;47.552;8.904;2023-04-15T06:39:26;5.53;;;3.70;;
8622;SDS011;4349;47.552;8.904;2023-04-15T06:41:53;4.03;;;3.63;;
8622;SDS011;4349;47.552;8.904;2023-04-15T06:44:21;5.33;;;3.40;;
8622;SDS011;4349;47.552;8.904;2023-04-15T06:46:49;3.80;;;3.50;;
8622;SDS011;4349;47.552;8.904;2023-04-15T07:00:37;7.77;;;6.90;;
8622;SDS011;4349;47.552;8.904;2023-04-15T07:03:05;8.47;;;7.43;;
8622;SDS011;4349;47.552;8.904;2023-04-15T07:05:36;7.17;;;6.53;;
8622;SDS011;4349;47.552;8.904;2023-04-15T07:08:03;5.43;;;4.93;;
8622;SDS011;4349;47.552;8.904;2023-04-15T07:10:31;5.00;;;4.50;;
8622;SDS011;4349;47.552;8.904;2023-04-15T07:12:59;3.60;;;3.30;;
8622;SDS011;4349;47.552;8.904;2023-04-15T07:15:26;3.40;;;3.20;;
8622;SDS011;4349;47.552;8.904;2023-04-15T07:17:55;3.40;;;3.10;;
8622;SDS011;4349;47.552;8.904;2023-04-15T07:20:23;3.23;;;2.97;;
8622;SDS011;4349;47.552;8.904;2023-04-15T07:22:51;3.70;;;3.33;;
8622;SDS011;4349;47.552;8.904;2023-04-15T07:25:18;3.40;;;3.20;;
8622;SDS011;4349;47.552;8.904;2023-04-15T07:27:45;3.80;;;3.50;;
8622;SDS011;4349;47.552;8.904;2023-04-15T07:30:13;5.47;;;4.00;;
8622;SDS011;4349;47.552;8.904;2023-04-15T07:32:41;5.00;;;4.30;;
8622;SDS011;4349;47.552;8.904;2023-04-15T07:35:10;4.77;;;4.03;;
8622;SDS011;4349;47.552;8.904;2023-04-15T07:37:37;3.63;;;3.20;;
8622;SDS011;4349;47.552;8.904;2023-04-15T07:40:05;3.13;;;2.93;;
8622;SDS011;4349;47.552;8.904;2023-04-15T07:42:34;3.80;;;2.67;;
8622;SDS011;4349;47.552;8.904;2023-04-15T07:45:01;3.20;;;3.00;;
8622;SDS011;4349;47.552;8.904;2023-04-15T07:47:29;5.43;;;2.80;;
8622;SDS011;4349;47.552;8.904;2023-04-15T07:49:57;5.90;;;3.00;;
8622;SDS011;4349;47.552;8.904;2023-04-15T07:52:26;4.33;;;4.00;;
8622;SDS011;4349;47.552;8.904;2023-04-15T07:54:54;4.60;;;3.67;;
8622;SDS011;4349;47.552;8.904;2023-04-15T07:57:21;3.80;;;3.40;;
8622;SDS011;4349;47.552;8.904;2023-04-15T07:59:49;5.80;;;3.70;;
8622;SDS011;4349;47.552;8.904;2023-04-15T08:02:16;4.10;;;3.70;;
8622;SDS011;4349;47.552;8.904;2023-04-15T08:04:44;5.33;;;3.53;;
8622;SDS011;4349;47.552;8.904;2023-04-15T08:07:12;4.23;;;3.93;;
8622;SDS011;4349;47.552;8.904;2023-04-15T08:09:40;6.17;;;4.40;;
8622;SDS011;4349;47.552;8.904;2023-04-15T08:12:08;4.40;;;4.00;;
8622;SDS011;4349;47.552;8.904;2023-04-15T08:14:38;3.73;;;3.40;;
8622;SDS011;4349;47.552;8.904;2023-04-15T08:17:06;4.30;;;3.90;;
8622;SDS011;4349;47.552;8.904;2023-04-15T08:19:33;5.13;;;4.23;;
8622;SDS011;4349;47.552;8.904;2023-04-15T08:22:00;4.43;;;3.83;;
8622;SDS011;4349;47.552;8.904;2023-04-15T08:24:28;4.30;;;3.77;;
8622;SDS011;4349;47.552;8.904;2023-04-15T08:26:57;5.83;;;3.97;;
8622;SDS011;4349;47.552;8.904;2023-04-15T08:29:25;4.63;;;4.23;;
8622;SDS011;4349;47.552;8.904;2023-04-15T08:31:52;4.20;;;3.80;;
8622;SDS011;4349;47.552;8.904;2023-04-15T08:34:20;4.90;;;4.40;;
8622;SDS011;4349;47.552;8.904;2023-04-15T08:36:47;5.93;;;4.93;;
8622;SDS011;4349;47.552;8.904;2023-04-15T08:39:15;4.63;;;4.20;;
8622;SDS011;4349;47.552;8.904;2023-04-15T08:41:44;6.27;;;4.37;;
8622;SDS011;4349;47.552;8.904;2023-04-15T08:44:14;4.47;;;4.07;;
8622;SDS011;4349;47.552;8.904;2023-04-15T08:46:41;4.60;;;4.13;;
8622;SDS011;4349;47.552;8.904;2023-04-15T08:49:10;5.33;;;4.17;;
8622;SDS011;4349;47.552;8.904;2023-04-15T08:51:38;4.10;;;3.70;;
8622;SDS011;4349;47.552;8.904;2023-04-15T08:54:06;3.03;;;2.80;;
8622;SDS011;4349;47.552;8.904;2023-04-15T08:56:35;3.67;;;3.40;;
8622;SDS011;4349;47.552;8.904;2023-04-15T08:59:03;4.20;;;3.43;;
8622;SDS011;4349;47.552;8.904;2023-04-15T09:01:32;3.50;;;3.20;;
8622;SDS011;4349;47.552;8.904;2023-04-15T09:03:59;4.43;;;2.77;;
8622;SDS011;4349;47.552;8.904;2023-04-15T09:06:28;3.47;;;2.90;;
8622;SDS011;4349;47.552;8.904;2023-04-15T09:08:56;3.00;;;2.80;;
8622;SDS011;4349;47.552;8.904;2023-04-15T09:11:23;3.30;;;3.00;;
8622;SDS011;4349;47.552;8.904;2023-04-15T09:13:51;3.20;;;3.00;;
8622;SDS011;4349;47.552;8.904;2023-04-15T09:16:18;3.40;;;3.00;;
8622;SDS011;4349;47.552;8.904;2023-04-15T09:18:47;3.13;;;2.87;;
8622;SDS011;4349;47.552;8.904;2023-04-15T09:21:15;3.03;;;2.73;;
8622;SDS011;4349;47.552;8.904;2023-04-15T09:23:52;4.80;;;2.77;;
8622;SDS011;4349;47.552;8.904;2023-04-15T09:26:28;3.90;;;2.90;;
8622;SDS011;4349;47.552;8.904;2023-04-15T09:29:01;3.00;;;2.80;;
8622;SDS011;4349;47.552;8.904;2023-04-15T09:31:28;7.47;;;5.53;;
8622;SDS011;4349;47.552;8.904;2023-04-15T09:33:57;2.43;;;2.33;;
8622;SDS011;4349;47.552;8.904;2023-04-15T09:36:25;2.77;;;2.43;;
8622;SDS011;4349;47.552;8.904;2023-04-15T09:38:55;2.77;;;2.57;;
8622;SDS011;4349;47.552;8.904;2023-04-15T09:41:23;3.00;;;2.80;;
8622;SDS011;4349;47.552;8.904;2023-04-15T09:43:50;2.97;;;2.77;;
8622;SDS011;4349;47.552;8.904;2023-04-15T09:46:18;2.87;;;2.70;;
8622;SDS011;4349;47.552;8.904;2023-04-15T09:48:45;3.67;;;2.70;;
8622;SDS011;4349;47.552;8.904;2023-04-15T09:51:14;3.10;;;2.80;;
8622;SDS011;4349;47.552;8.904;2023-04-15T09:53:42;3.33;;;2.60;;
8622;SDS011;4349;47.552;8.904;2023-04-15T09:56:09;2.93;;;2.60;;
8622;SDS011;4349;47.552;8.904;2023-04-15T09:58:37;2.70;;;2.50;;
8622;SDS011;4349;47.552;8.904;2023-04-15T10:01:04;2.73;;;2.53;;
8622;SDS011;4349;47.552;8.904;2023-04-15T10:03:33;2.90;;;2.63;;
8622;SDS011;4349;47.552;8.904;2023-04-15T10:06:02;2.70;;;2.50;;
8622;SDS011;4349;47.552;8.904;2023-04-15T10:08:32;2.63;;;2.50;;
8622;SDS011;4349;47.552;8.904;2023-04-15T10:11:00;2.83;;;2.70;;
8622;SDS011;4349;47.552;8.904;2023-04-15T10:13:28;4.93;;;2.80;;
8622;SDS011;4349;47.552;8.904;2023-04-15T10:15:58;2.10;;;2.03;;
8622;SDS011;4349;47.552;8.904;2023-04-15T10:18:27;2.50;;;2.40;;
8622;SDS011;4349;47.552;8.904;2023-04-15T10:20:55;3.23;;;2.60;;
8622;SDS011;4349;47.552;8.904;2023-04-15T10:23:22;2.67;;;2.57;;
8622;SDS011;4349;47.552;8.904;2023-04-15T10:25:52;3.50;;;3.20;;
8622;SDS011;4349;47.552;8.904;2023-04-15T10:28:20;3.60;;;2.90;;
8622;SDS011;4349;47.552;8.904;2023-04-15T10:30:48;3.07;;;2.50;;
8622;SDS011;4349;47.552;8.904;2023-04-15T10:33:16;2.50;;;2.40;;
8622;SDS011;4349;47.552;8.904;2023-04-15T10:35:45;2.80;;;2.60;;
8622;SDS011;4349;47.552;8.904;2023-04-15T10:38:33;2.73;;;2.50;;
8622;SDS011;4349;47.552;8.904;2023-04-15T10:41:15;2.57;;;2.47;;
8622;SDS011;4349;47.552;8.904;2023-04-15T10:43:49;2.23;;;2.13;;
8622;SDS011;4349;47.552;8.904;2023-04-15T10:46:18;2.37;;;2.20;;
8622;SDS011;4349;47.552;8.904;2023-04-15T10:48:47;2.40;;;2.20;;
8622;SDS011;4349;47.552;8.904;2023-04-15T10:51:15;2.70;;;2.50;;
8622;SDS011;4349;47.552;8.904;2023-04-15T10:53:42;2.70;;;2.50;;
8622;SDS011;4349;47.552;8.904;2023-04-15T10:56:10;3.33;;;2.30;;
8622;SDS011;4349;47.552;8.904;2023-04-15T10:58:41;2.60;;;2.37;;
8622;SDS011;4349;47.552;8.904;2023-04-15T11:01:09;1.80;;;1.80;;
8622;SDS011;4349;47.552;8.904;2023-04-15T11:03:37;2.23;;;2.00;;
8622;SDS011;4349;47.552;8.904;2023-04-15T11:06:05;2.10;;;2.00;;
8622;SDS011;4349;47.552;8.904;2023-04-15T11:11:19;2.30;;;2.20;;
8622;SDS011;4349;47.552;8.904;2023-04-15T11:13:48;2.83;;;2.20;;
8622;SDS011;4349;47.552;8.904;2023-04-15T11:16:15;2.80;;;2.53;;
8622;SDS011;4349;47.552;8.904;2023-04-15T11:18:52;2.80;;;2.60;;
8622;SDS011;4349;47.552;8.904;2023-04-15T11:21:19;2.30;;;2.10;;
8622;SDS011;4349;47.552;8.904;2023-04-15T11:23:50;3.53;;;2.40;;
8622;SDS011;4349;47.552;8.904;2023-04-15T11:26:17;2.30;;;2.10;;
8622;SDS011;4349;47.552;8.904;2023-04-15T11:28:45;2.20;;;2.00;;
8622;SDS011;4349;47.552;8.904;2023-04-15T11:31:14;2.20;;;2.10;;
8622;SDS011;4349;47.552;8.904;2023-04-15T11:33:44;3.10;;;2.20;;
8622;SDS011;4349;47.552;8.904;2023-04-15T11:36:12;2.33;;;2.10;;
8622;SDS011;4349;47.552;8.904;2023-04-15T11:38:43;2.43;;;2.33;;
8622;SDS011;4349;47.552;8.904;2023-04-15T11:41:11;2.57;;;2.47;;
8622;SDS011;4349;47.552;8.904;2023-04-15T11:43:39;3.50;;;3.20;;
8622;SDS011;4349;47.552;8.904;2023-04-15T11:46:06;3.13;;;2.40;;
8622;SDS011;4349;47.552;8.904;2023-04-15T11:48:35;3.43;;;2.23;;
8622;SDS011;4349;47.552;8.904;2023-04-15T11:51:03;2.03;;;1.93;;
8622;SDS011;4349;47.552;8.904;2023-04-15T11:53:35;2.10;;;2.00;;
8622;SDS011;4349;47.552;8.904;2023-04-15T11:56:03;2.70;;;2.43;;
8622;SDS011;4349;47.552;8.904;2023-04-15T11:58:32;4.17;;;2.87;;
8622;SDS011;4349;47.552;8.904;2023-04-15T12:01:00;2.80;;;2.60;;
8622;SDS011;4349;47.552;8.904;2023-04-15T12:03:28;3.77;;;2.73;;
8622;SDS011;4349;47.552;8.904;2023-04-15T12:06:04;2.83;;;2.30;;
8622;SDS011;4349;47.552;8.904;2023-04-15T12:08:51;2.93;;;2.60;;
8622;SDS011;4349;47.552;8.904;2023-04-15T12:11:19;3.00;;;2.70;;
8622;SDS011;4349;47.552;8.904;2023-04-15T12:13:46;3.00;;;2.80;;
8622;SDS011;4349;47.552;8.904;2023-04-15T12:16:15;3.07;;;2.70;;
8622;SDS011;4349;47.552;8.904;2023-04-15T12:18:43;3.40;;;2.83;;
8622;SDS011;4349;47.552;8.904;2023-04-15T12:21:12;3.80;;;2.70;;
8622;SDS011;4349;47.552;8.904;2023-04-15T12:23:46;3.03;;;2.50;;
8622;SDS011;4349;47.552;8.904;2023-04-15T12:26:14;2.40;;;2.30;;
8622;SDS011;4349;47.552;8.904;2023-04-15T12:28:41;2.67;;;2.50;;
8622;SDS011;4349;47.552;8.904;2023-04-15T12:31:09;3.30;;;2.60;;
8622;SDS011;4349;47.552;8.904;2023-04-15T12:33:38;2.80;;;2.70;;
8622;SDS011;4349;47.552;8.904;2023-04-15T12:36:05;2.90;;;2.70;;
8622;SDS011;4349;47.552;8.904;2023-04-15T12:38:34;2.30;;;2.20;;
8622;SDS011;4349;47.552;8.904;2023-04-15T12:41:02;2.50;;;2.40;;
8622;SDS011;4349;47.552;8.904;2023-04-15T12:43:29;3.60;;;2.70;;
8622;SDS011;4349;47.552;8.904;2023-04-15T12:45:56;2.83;;;2.30;;
8622;SDS011;4349;47.552;8.904;2023-04-15T12:48:24;2.50;;;2.30;;
8622;SDS011;4349;47.552;8.904;2023-04-15T12:50:51;2.87;;;2.67;;
8622;SDS011;4349;47.552;8.904;2023-04-15T12:53:19;2.63;;;2.53;;
8622;SDS011;4349;47.552;8.904;2023-04-15T12:55:47;3.00;;;2.80;;
8622;SDS011;4349;47.552;8.904;2023-04-15T12:58:15;2.37;;;2.17;;
8622;SDS011;4349;47.552;8.904;2023-04-15T13:00:42;2.77;;;2.60;;
8622;SDS011;4349;47.552;8.904;2023-04-15T13:03:10;2.33;;;2.17;;
8622;SDS011;4349;47.552;8.904;2023-04-15T13:05:37;3.70;;;2.17;;
8622;SDS011;4349;47.552;8.904;2023-04-15T13:08:05;2.57;;;2.30;;
8622;SDS011;4349;47.552;8.904;2023-04-15T13:10:32;2.67;;;2.57;;
8622;SDS011;4349;47.552;8.904;2023-04-15T13:13:03;2.83;;;2.23;;
8622;SDS011;4349;47.552;8.904;2023-04-15T13:15:30;2.87;;;2.07;;
8622;SDS011;4349;47.552;8.904;2023-04-15T13:17:57;4.30;;;2.40;;
8622;SDS011;4349;47.552;8.904;2023-04-15T13:20:25;4.50;;;2.53;;
8622;SDS011;4349;47.552;8.904;2023-04-15T13:22:53;3.50;;;2.40;;
8622;SDS011;4349;47.552;8.904;2023-04-15T13:25:21;2.63;;;2.53;;
8622;SDS011;4349;47.552;8.904;2023-04-15T13:27:48;2.90;;;2.37;;
8622;SDS011;4349;47.552;8.904;2023-04-15T13:30:17;2.40;;;2.30;;
8622;SDS011;4349;47.552;8.904;2023-04-15T13:32:45;2.13;;;1.93;;
8622;SDS011;4349;47.552;8.904;2023-04-15T13:35:15;2.13;;;1.90;;
8622;SDS011;4349;47.552;8.904;2023-04-15T13:37:43;2.20;;;1.97;;
8622;SDS011;4349;47.552;8.904;2023-04-15T13:40:10;2.57;;;2.10;;
8622;SDS011;4349;47.552;8.904;2023-04-15T13:42:38;2.00;;;1.90;;
8622;SDS011;4349;47.552;8.904;2023-04-15T13:45:06;2.10;;;2.00;;
8622;SDS011;4349;47.552;8.904;2023-04-15T13:47:35;2.00;;;1.80;;
8622;SDS011;4349;47.552;8.904;2023-04-15T13:50:03;2.17;;;2.07;;
8622;SDS011;4349;47.552;8.904;2023-04-15T13:52:30;2.43;;;2.17;;
8622;SDS011;4349;47.552;8.904;2023-04-15T13:54:58;2.97;;;2.67;;
8622;SDS011;4349;47.552;8.904;2023-04-15T13:57:43;2.70;;;2.50;;
8622;SDS011;4349;47.552;8.904;2023-04-15T14:00:12;2.53;;;2.27;;
8622;SDS011;4349;47.552;8.904;2023-04-15T14:02:41;2.43;;;2.33;;
8622;SDS011;4349;47.552;8.904;2023-04-15T14:05:08;2.57;;;2.37;;
8622;SDS011;4349;47.552;8.904;2023-04-15T14:07:36;2.73;;;2.40;;
8622;SDS011;4349;47.552;8.904;2023-04-15T14:10:04;2.70;;;2.50;;
8622;SDS011;4349;47.552;8.904;2023-04-15T14:12:31;2.50;;;2.40;;
8622;SDS011;4349;47.552;8.904;2023-04-15T14:14:59;2.63;;;2.43;;
8622;SDS011;4349;47.552;8.904;2023-04-15T14:17:27;2.70;;;2.60;;
8622;SDS011;4349;47.552;8.904;2023-04-15T14:19:56;2.33;;;2.23;;
8622;SDS011;4349;47.552;8.904;2023-04-15T14:22:23;2.80;;;2.60;;
8622;SDS011;4349;47.552;8.904;2023-04-15T14:24:51;2.73;;;2.53;;
8622;SDS011;4349;47.552;8.904;2023-04-15T14:27:20;4.43;;;2.50;;
8622;SDS011;4349;47.552;8.904;2023-04-15T14:29:48;3.63;;;2.87;;
8622;SDS011;4349;47.552;8.904;2023-04-15T14:32:15;3.17;;;2.70;;
8622;SDS011;4349;47.552;8.904;2023-04-15T14:34:43;2.30;;;2.20;;
8622;SDS011;4349;47.552;8.904;2023-04-15T14:37:12;2.20;;;2.10;;
8622;SDS011;4349;47.552;8.904;2023-04-15T14:39:39;2.57;;;2.40;;
8622;SDS011;4349;47.552;8.904;2023-04-15T14:42:06;3.40;;;2.20;;
8622;SDS011;4349;47.552;8.904;2023-04-15T14:44:34;3.73;;;2.50;;
8622;SDS011;4349;47.552;8.904;2023-04-15T14:47:02;2.33;;;2.13;;
8622;SDS011;4349;47.552;8.904;2023-04-15T14:49:29;3.83;;;2.60;;
8622;SDS011;4349;47.552;8.904;2023-04-15T14:51:56;2.47;;;2.27;;
8622;SDS011;4349;47.552;8.904;2023-04-15T14:54:25;2.93;;;2.73;;
8622;SDS011;4349;47.552;8.904;2023-04-15T14:56:52;2.60;;;2.10;;
8622;SDS011;4349;47.552;8.904;2023-04-15T14:59:20;2.50;;;2.07;;
8622;SDS011;4349;47.552;8.904;2023-04-15T15:01:48;3.23;;;2.00;;
8622;SDS011;4349;47.552;8.904;2023-04-15T15:04:15;2.20;;;2.10;;
8622;SDS011;4349;47.552;8.904;2023-04-15T15:06:43;3.87;;;2.30;;
8622;SDS011;4349;47.552;8.904;2023-04-15T15:09:14;2.50;;;2.10;;
8622;SDS011;4349;47.552;8.904;2023-04-15T15:11:43;2.47;;;2.17;;
8622;SDS011;4349;47.552;8.904;2023-04-15T15:14:10;4.50;;;3.20;;
8622;SDS011;4349;47.552;8.904;2023-04-15T15:16:37;2.63;;;2.43;;
8622;SDS011;4349;47.552;8.904;2023-04-15T15:19:05;2.00;;;1.90;;
8622;SDS011;4349;47.552;8.904;2023-04-15T15:21:33;2.30;;;2.17;;
8622;SDS011;4349;47.552;8.904;2023-04-15T15:24:00;1.93;;;1.83;;
8622;SDS011;4349;47.552;8.904;2023-04-15T15:26:28;2.37;;;2.20;;
8622;SDS011;4349;47.552;8.904;2023-04-15T15:28:56;2.57;;;2.13;;
8622;SDS011;4349;47.552;8.904;2023-04-15T15:31:24;2.00;;;1.90;;
8622;SDS011;4349;47.552;8.904;2023-04-15T15:33:52;2.07;;;1.97;;
8622;SDS011;4349;47.552;8.904;2023-04-15T15:36:19;2.70;;;2.50;;
8622;SDS011;4349;47.552;8.904;2023-04-15T15:38:46;2.63;;;2.53;;